Parish, New York
Current Conditions -  °F | °C
As of 6:54 AM on Tuesday 21 Oct 2014 (Local Time) from KFZY Reporting Station
Light Rain Light Rain  
Wind Chill:   Ceiling: 2800
Heat Index:   Visibility: 10mi
Dew Point:   Wind: 5mph
Humidity: 86%   Direction: 120°ESE
Pressure: 29.83"   Gusts: NA
Location:  43.41°N, 76.13°W
Report Text: KFZY 211054Z AUTO 12004KT 10SM -RA BKN028 OVC033 09/07 A2983 RMK AO2 SLP101 P0000 T00890067
Loading
Personal Weather Stations






























Interactive Weather Map
Tropical Storm Tracking
New forecast layout! Learn more

10-Day Weather Forecast

Advertisements
Track Severe Weather on mobile